createdAt,value
2018-11-20T00:01:42.764Z,95783.45
2018-11-20T00:04:52.022Z,95787.13
2018-11-20T00:08:01.305Z,95778.20
2018-11-20T00:13:41.419Z,95766.62
2018-11-20T00:16:47.503Z,95753.13
2018-11-20T00:19:56.450Z,95742.88
2018-11-20T00:26:09.419Z,95743.98
2018-11-20T00:29:18.273Z,95747.41
2018-11-20T00:32:07.558Z,95738.42
2018-11-20T00:35:16.436Z,95739.38
2018-11-20T00:46:58.992Z,95739.10
2018-11-20T00:56:14.276Z,95744.00
2018-11-20T01:01:52.274Z,95722.62
2018-11-20T01:05:01.116Z,95722.91
2018-11-20T01:08:10.272Z,95721.20
2018-11-20T01:11:20.146Z,95717.14
2018-11-20T01:14:10.784Z,95712.38
2018-11-20T01:17:00.000Z,95717.34
2018-11-20T01:26:16.253Z,95700.14
2018-11-20T01:29:25.109Z,95698.21
2018-11-20T01:34:58.392Z,95693.29
2018-11-20T01:38:26.553Z,95686.93
2018-11-20T01:41:36.500Z,95677.71
2018-11-20T01:44:45.297Z,95681.88
2018-11-20T01:47:54.232Z,95681.20
2018-11-20T01:50:44.431Z,95679.04
2018-11-20T01:56:38.474Z,95674.81
2018-11-20T01:59:27.952Z,95678.38
2018-11-20T02:02:36.907Z,95673.17
2018-11-20T02:05:45.779Z,95662.41
2018-11-20T02:08:54.657Z,95674.31
2018-11-20T02:12:03.587Z,95674.83
2018-11-20T02:15:12.443Z,95669.91
2018-11-20T02:18:05.710Z,95674.16
2018-11-20T02:21:14.687Z,95667.45
2018-11-20T02:24:27.608Z,95660.44
2018-11-20T02:27:10.120Z,95674.36
2018-11-20T02:30:30.312Z,95666.52
2018-11-20T02:36:12.772Z,95671.13
2018-11-20T02:39:21.618Z,95682.91
2018-11-20T02:48:00.963Z,95665.61
2018-11-20T02:51:09.826Z,95672.98
2018-11-20T02:54:20.662Z,95664.22
2018-11-20T02:57:10.965Z,95664.66
2018-11-20T03:00:17.737Z,95650.70
2018-11-20T03:06:10.476Z,95649.20
2018-11-20T03:09:19.314Z,95639.70
2018-11-20T03:12:08.525Z,95642.38
2018-11-20T03:15:17.369Z,95640.02
2018-11-20T03:18:06.565Z,95643.70
2018-11-20T03:21:15.413Z,95646.16
2018-11-20T03:24:24.619Z,95635.77
2018-11-20T03:27:33.473Z,95630.72
2018-11-20T03:31:20.903Z,95634.64
2018-11-20T03:34:12.715Z,95648.16
2018-11-20T03:37:22.608Z,95637.16
2018-11-20T03:40:11.796Z,95642.08
2018-11-20T03:43:20.652Z,95643.55
2018-11-20T03:46:29.489Z,95646.16
2018-11-20T03:49:40.809Z,95651.64
2018-11-20T03:52:49.667Z,95640.08
2018-11-20T03:55:58.563Z,95611.06
2018-11-20T03:59:07.447Z,95624.28
2018-11-20T04:02:16.680Z,95622.34
2018-11-20T04:08:07.778Z,95648.02
2018-11-20T04:11:16.650Z,95641.84
2018-11-20T04:14:05.831Z,95641.34
2018-11-20T04:17:08.362Z,95637.76
2018-11-20T04:20:09.895Z,95639.17
2018-11-20T04:23:18.765Z,95622.76
2018-11-20T04:29:10.500Z,95602.47
2018-11-20T04:32:38.628Z,95594.53
2018-11-20T04:35:29.536Z,95603.59
2018-11-20T04:38:27.220Z,95609.74
2018-11-20T04:44:26.376Z,95611.61
2018-11-20T04:47:35.247Z,95609.74
2018-11-20T04:50:15.371Z,95611.30
2018-11-20T04:56:41.454Z,95620.59
2018-11-20T05:02:34.408Z,95620.14
2018-11-20T05:05:45.420Z,95610.72
2018-11-20T05:11:58.217Z,95609.27
2018-11-20T05:15:07.130Z,95593.13
2018-11-20T05:18:15.998Z,95598.73
2018-11-20T05:21:24.942Z,95594.37
2018-11-20T05:24:21.595Z,95589.73
2018-11-20T05:27:20.599Z,95588.52
2018-11-20T05:30:29.422Z,95586.73
2018-11-20T05:33:57.819Z,95578.06
2018-11-20T05:37:06.414Z,95573.97
2018-11-20T05:42:58.089Z,95574.88
2018-11-20T05:45:48.320Z,95566.41
2018-11-20T05:59:56.926Z,95530.45
2018-11-20T06:03:05.772Z,95545.60
2018-11-20T06:06:07.409Z,95549.03
2018-11-20T06:12:00.256Z,95522.67
2018-11-20T06:15:09.117Z,95524.53
2018-11-20T06:18:18.005Z,95517.05
2018-11-20T06:21:27.140Z,95488.28
2018-11-20T06:24:36.017Z,95507.79
2018-11-20T06:27:44.897Z,95519.23
2018-11-20T06:30:53.736Z,95532.02
2018-11-20T06:34:02.595Z,95533.55
2018-11-20T06:36:51.800Z,95542.95
2018-11-20T06:40:00.939Z,95534.63
2018-11-20T06:42:51.129Z,95545.91
2018-11-20T06:45:41.389Z,95554.00
2018-11-20T06:48:30.538Z,95554.00
2018-11-20T06:51:39.396Z,95556.30
2018-11-20T06:54:48.578Z,95572.41
2018-11-20T06:57:57.532Z,95576.14
2018-11-20T07:00:46.789Z,95579.98
2018-11-20T07:03:55.674Z,95564.41
2018-11-20T07:06:52.054Z,95556.91
2018-11-20T07:10:00.920Z,95549.61
2018-11-20T07:13:09.792Z,95528.67
2018-11-20T07:16:56.462Z,95534.47
2018-11-20T07:19:50.363Z,95534.47
2018-11-20T07:22:39.607Z,95539.34
2018-11-20T07:25:48.431Z,95543.27
2018-11-20T07:28:57.270Z,95540.96
2018-11-20T07:32:06.537Z,95539.31
2018-11-20T07:35:15.402Z,95536.48
2018-11-20T07:38:24.473Z,95541.45
2018-11-20T07:41:33.296Z,95544.28
2018-11-20T07:44:42.140Z,95544.06
2018-11-20T07:47:51.015Z,95549.50
2018-11-20T07:51:00.232Z,95547.50
2018-11-20T07:54:09.059Z,95551.84
2018-11-20T07:57:17.939Z,95554.98
2018-11-20T08:00:46.074Z,95546.48
2018-11-20T08:03:35.237Z,95554.55
2018-11-20T08:06:44.077Z,95537.56
2018-11-20T08:09:52.938Z,95538.30
2018-11-20T08:13:01.801Z,95538.30
2018-11-20T08:16:11.045Z,95531.09
2018-11-20T08:19:20.653Z,95528.95
2018-11-20T08:25:11.728Z,95526.94
2018-11-20T08:28:20.698Z,95524.63
2018-11-20T08:31:29.587Z,95516.51
2018-11-20T08:34:50.184Z,95514.20
2018-11-20T08:37:41.006Z,95506.70
2018-11-20T08:43:33.826Z,95493.39
2018-11-20T08:46:42.679Z,95494.52
2018-11-20T08:49:32.026Z,95484.94
2018-11-20T08:52:40.921Z,95492.25
2018-11-20T08:58:11.474Z,95491.55
2018-11-20T09:01:11.616Z,95497.74
2018-11-20T09:04:20.539Z,95493.17
2018-11-20T09:07:29.453Z,95498.75
2018-11-20T09:10:38.342Z,95489.12
2018-11-20T09:13:47.176Z,95483.06
2018-11-20T09:16:56.304Z,95492.81
2018-11-20T09:22:48.117Z,95447.53
2018-11-20T09:25:56.988Z,95457.41
2018-11-20T09:28:46.176Z,95467.73
2018-11-20T09:34:18.449Z,95472.70
2018-11-20T09:37:27.283Z,95479.53
2018-11-20T09:41:04.922Z,95475.36
2018-11-20T09:44:51.576Z,95481.89
2018-11-20T09:47:42.273Z,95470.78
2018-11-20T09:50:51.153Z,95477.84
2018-11-20T09:56:42.481Z,95474.01
2018-11-20T09:59:51.373Z,95482.84
2018-11-20T10:03:00.188Z,95473.80
2018-11-20T10:06:09.053Z,95465.61
2018-11-20T10:12:01.214Z,95443.87
2018-11-20T10:15:10.110Z,95434.56
2018-11-20T10:18:18.988Z,95430.02
2018-11-20T10:21:27.950Z,95430.08
2018-11-20T10:27:20.389Z,95426.80
2018-11-20T10:30:29.594Z,95425.97
2018-11-20T10:36:21.981Z,95412.00
2018-11-20T10:39:31.074Z,95401.51
2018-11-20T10:45:23.964Z,95406.44
2018-11-20T10:48:32.728Z,95397.77
2018-11-20T10:51:26.864Z,95401.53
2018-11-20T10:54:35.851Z,95400.14
2018-11-20T10:57:44.695Z,95386.61
2018-11-20T11:00:53.575Z,95388.61
2018-11-20T11:04:02.541Z,95383.00
2018-11-20T11:07:30.969Z,95382.73
2018-11-20T11:10:06.155Z,95385.88
2018-11-20T11:13:15.156Z,95378.20
2018-11-20T11:16:16.856Z,95383.28
2018-11-20T11:22:07.530Z,95381.73
2018-11-20T11:25:16.402Z,95377.03
2018-11-20T11:28:05.559Z,95369.11
2018-11-20T11:31:26.371Z,95359.44
2018-11-20T11:34:29.311Z,95359.00
2018-11-20T11:37:00.622Z,95364.22
2018-11-20T11:40:09.476Z,95367.08
2018-11-20T11:43:18.315Z,95369.83
2018-11-20T11:46:19.251Z,95371.02
2018-11-20T11:49:08.744Z,95362.55
2018-11-20T11:52:17.592Z,95369.15
2018-11-20T11:55:26.492Z,95363.81
2018-11-20T11:58:35.521Z,95371.58
2018-11-20T12:04:52.499Z,95373.84
2018-11-20T12:08:01.381Z,95365.01
2018-11-20T12:11:10.235Z,95349.45
2018-11-20T12:14:19.094Z,95358.56
2018-11-20T12:17:28.276Z,95376.09
2018-11-20T12:20:37.171Z,95362.30
2018-11-20T12:23:46.059Z,95340.78
2018-11-20T12:26:55.447Z,95329.31
2018-11-20T12:30:04.766Z,95338.80
2018-11-20T12:33:13.629Z,95346.69
2018-11-20T12:36:02.866Z,95323.09
2018-11-20T12:38:52.030Z,95335.48
2018-11-20T12:42:02.533Z,95347.02
2018-11-20T12:47:53.983Z,95331.61
2018-11-20T12:50:43.175Z,95331.33
2018-11-20T12:53:52.029Z,95343.53
2018-11-20T12:59:45.806Z,95352.63
2018-11-20T13:02:54.950Z,95344.70
2018-11-20T13:05:44.111Z,95343.78
2018-11-20T13:08:52.952Z,95336.39
2018-11-20T13:12:01.828Z,95350.38
2018-11-20T13:15:10.687Z,95349.39
2018-11-20T13:18:19.831Z,95346.48
2018-11-20T13:21:28.748Z,95349.63
2018-11-20T13:24:41.160Z,95348.81
2018-11-20T13:27:32.154Z,95345.31
2018-11-20T13:30:40.993Z,95348.27
2018-11-20T13:39:18.224Z,95342.05
2018-11-20T13:42:47.757Z,95348.35
2018-11-20T13:45:56.710Z,95347.28
2018-11-20T13:49:05.571Z,95325.80
2018-11-20T13:52:14.685Z,95318.02
2018-11-20T13:58:06.707Z,95324.53
2018-11-20T14:01:15.551Z,95316.25
2018-11-20T14:04:24.469Z,95299.28
2018-11-20T14:10:07.088Z,95319.55
2018-11-20T14:13:15.971Z,95313.34
2018-11-20T14:16:25.143Z,95307.75
2018-11-20T14:22:15.375Z,95305.93
2018-11-20T14:25:45.552Z,95289.17
2018-11-20T14:28:49.826Z,95299.38
2018-11-20T14:31:58.654Z,95284.47
2018-11-20T14:35:18.735Z,95291.50
2018-11-20T14:40:51.813Z,95317.31
2018-11-20T14:44:00.760Z,95314.09
2018-11-20T14:49:53.760Z,95313.36
2018-11-20T14:55:45.971Z,95312.69
2018-11-20T14:58:54.889Z,95315.02
2018-11-20T15:02:04.681Z,95309.89
2018-11-20T15:05:32.419Z,95307.63
2018-11-20T15:08:22.804Z,95313.75
2018-11-20T15:11:31.646Z,95310.03
2018-11-20T15:14:40.526Z,95312.05
2018-11-20T15:20:31.553Z,95313.33
2018-11-20T15:26:22.102Z,95317.44
2018-11-20T15:29:30.999Z,95316.66
2018-11-20T15:32:39.854Z,95315.73
2018-11-20T15:35:48.725Z,95317.06
2018-11-20T15:38:52.500Z,95317.42
2018-11-20T15:42:06.741Z,95317.48
2018-11-20T15:45:10.199Z,95318.30
2018-11-20T16:04:42.801Z,95315.91
2018-11-20T16:10:33.788Z,95319.20
2018-11-20T16:13:42.646Z,95323.16
2018-11-20T16:16:31.961Z,95322.63
2018-11-20T16:22:28.914Z,95318.63
2018-11-20T16:25:37.807Z,95320.49
2018-11-20T16:28:46.953Z,95317.72
2018-11-20T16:31:55.958Z,95314.36
2018-11-20T16:35:24.028Z,95315.07
2018-11-20T16:38:13.804Z,95317.70
2018-11-20T16:41:23.748Z,95318.68
2018-11-20T16:44:13.077Z,95323.77
2018-11-20T16:47:14.092Z,95328.33
2018-11-20T16:50:23.040Z,95328.27
2018-11-20T16:53:12.342Z,95335.63
2018-11-20T16:56:21.170Z,95336.62
2018-11-20T16:59:30.092Z,95349.95
2018-11-20T17:02:39.447Z,95350.23
2018-11-20T17:05:48.531Z,95347.07
2018-11-20T17:08:57.412Z,95354.12
2018-11-20T17:14:50.908Z,95351.73
2018-11-20T17:18:00.735Z,95349.29
2018-11-20T17:20:51.500Z,95346.48
2018-11-20T17:24:03.680Z,95349.20
2018-11-20T17:29:54.698Z,95358.52
2018-11-20T17:33:03.968Z,95364.71
2018-11-20T17:36:13.211Z,95367.88
2018-11-20T17:39:12.797Z,95373.66
2018-11-20T17:42:22.059Z,95371.61
2018-11-20T17:48:13.203Z,95374.08
2018-11-20T17:51:14.658Z,95382.42
2018-11-20T17:54:23.646Z,95386.84
2018-11-20T17:57:13.890Z,95388.38
2018-11-20T18:00:04.200Z,95399.01
2018-11-20T18:05:56.454Z,95396.54
2018-11-20T18:14:32.482Z,95386.03
2018-11-20T18:17:41.468Z,95396.31
2018-11-20T18:20:50.378Z,95397.92
2018-11-20T18:27:02.727Z,95405.71
2018-11-20T18:32:53.961Z,95411.47
2018-11-20T18:36:03.222Z,95409.85
2018-11-20T18:39:12.640Z,95419.48
2018-11-20T18:42:28.410Z,95420.54
2018-11-20T18:45:37.733Z,95418.19
2018-11-20T18:48:26.916Z,95415.45
2018-11-20T18:51:35.877Z,95416.55
2018-11-20T18:54:44.755Z,95417.87
2018-11-20T18:57:53.951Z,95420.66
2018-11-20T19:01:02.842Z,95422.36
2018-11-20T19:04:11.688Z,95422.01
2018-11-20T19:15:28.582Z,95434.23
2018-11-20T19:18:37.528Z,95433.17
2018-11-20T19:21:26.839Z,95438.41
2018-11-20T19:24:35.769Z,95444.89
2018-11-20T19:27:44.648Z,95449.33
2018-11-20T19:30:53.511Z,95460.23
2018-11-20T19:34:02.470Z,95458.84
2018-11-20T19:37:11.379Z,95462.96
2018-11-20T19:40:21.060Z,95467.37
2018-11-20T19:46:12.550Z,95469.90
2018-11-20T19:52:25.735Z,95465.37
2018-11-20T19:58:46.571Z,95476.22
2018-11-20T20:01:55.466Z,95474.72
2018-11-20T20:07:47.949Z,95475.16
2018-11-20T20:10:57.749Z,95483.44
2018-11-20T20:13:46.935Z,95481.70
2018-11-20T20:16:56.446Z,95482.83
2018-11-20T20:22:48.838Z,95480.95
2018-11-20T20:28:21.190Z,95485.41
2018-11-20T20:31:31.201Z,95485.79
2018-11-20T20:34:35.613Z,95491.47
2018-11-20T20:37:24.913Z,95501.75
2018-11-20T20:40:33.764Z,95502.75
2018-11-20T20:43:42.603Z,95521.23
2018-11-20T20:46:51.484Z,95518.66
2018-11-20T20:49:57.714Z,95525.30
2018-11-20T20:58:34.952Z,95521.03
2018-11-20T21:01:43.985Z,95517.24
2018-11-20T21:04:40.246Z,95520.48
2018-11-20T21:07:49.917Z,95527.00
2018-11-20T21:10:39.463Z,95532.12
2018-11-20T21:13:48.359Z,95533.17
2018-11-20T21:22:26.257Z,95540.91
2018-11-20T21:31:36.917Z,95549.46
2018-11-20T21:34:45.774Z,95542.61
2018-11-20T21:37:55.018Z,95540.88
2018-11-20T21:41:18.303Z,95543.29
2018-11-20T21:44:27.151Z,95538.77
2018-11-20T21:47:17.575Z,95550.14
2018-11-20T21:50:27.980Z,95557.20
2018-11-20T21:53:36.786Z,95550.75
2018-11-20T21:56:26.244Z,95562.02
2018-11-20T21:59:42.112Z,95565.16
2018-11-20T22:02:51.864Z,95571.73
2018-11-20T22:08:43.613Z,95564.08
2018-11-20T22:11:52.516Z,95564.37
2018-11-20T22:17:46.415Z,95576.05
2018-11-20T22:20:55.300Z,95580.88
2018-11-20T22:24:04.184Z,95587.80
2018-11-20T22:27:13.063Z,95586.20
2018-11-20T22:33:04.411Z,95589.73
2018-11-20T22:36:13.224Z,95583.72
2018-11-20T22:39:02.501Z,95581.63
2018-11-20T22:42:08.898Z,95581.80
2018-11-20T22:48:20.704Z,95594.91
2018-11-20T22:51:29.590Z,95599.49
2018-11-20T22:54:38.615Z,95600.88
2018-11-20T22:57:47.501Z,95606.34
2018-11-20T23:00:56.352Z,95604.55
2018-11-20T23:04:05.191Z,95600.75
2018-11-20T23:07:14.041Z,95600.45
2018-11-20T23:10:04.285Z,95605.29
2018-11-20T23:12:55.127Z,95598.97
2018-11-20T23:15:45.350Z,95599.97
2018-11-20T23:18:35.608Z,95599.27
2018-11-20T23:21:25.840Z,95603.06
2018-11-20T23:27:00.491Z,95608.81
2018-11-20T23:35:45.789Z,95616.42
2018-11-20T23:38:16.347Z,95618.70
2018-11-20T23:40:46.904Z,95615.88
2018-11-20T23:43:17.487Z,95609.38
2018-11-20T23:45:48.071Z,95612.08
2018-11-20T23:48:18.619Z,95613.14
2018-11-20T23:53:45.279Z,95606.77
2018-11-20T23:56:35.979Z,95613.62
2018-11-20T23:59:27.270Z,95609.25
